createdAt,value
2022-08-19T00:01:26.283Z,18.70
2022-08-19T00:03:59.012Z,18.70
2022-08-19T00:06:27.850Z,18.70
2022-08-19T00:08:54.937Z,18.70
2022-08-19T00:11:25.518Z,18.70
2022-08-19T00:13:53.384Z,18.70
2022-08-19T00:16:25.126Z,18.70
2022-08-19T00:18:54.487Z,18.60
2022-08-19T00:21:21.550Z,18.60
2022-08-19T00:23:48.885Z,18.60
2022-08-19T00:26:15.791Z,18.60
2022-08-19T00:28:42.767Z,18.60
2022-08-19T00:31:10.405Z,18.60
2022-08-19T00:33:37.837Z,18.60
2022-08-19T00:36:07.442Z,18.50
2022-08-19T00:38:38.108Z,18.40
2022-08-19T00:41:08.470Z,18.40
2022-08-19T00:43:36.055Z,18.40
2022-08-19T00:46:05.624Z,18.40
2022-08-19T00:48:34.506Z,18.40
2022-08-19T00:51:02.769Z,18.40
2022-08-19T00:53:33.021Z,18.40
2022-08-19T00:56:02.131Z,18.50
2022-08-19T00:58:33.423Z,18.40
2022-08-19T01:01:01.785Z,18.40
2022-08-19T01:03:28.815Z,18.40
2022-08-19T01:06:15.748Z,18.40
2022-08-19T01:08:47.558Z,18.40
2022-08-19T01:11:17.522Z,18.40
2022-08-19T01:13:50.059Z,18.40
2022-08-19T01:16:19.754Z,18.40
2022-08-19T01:18:46.772Z,18.40
2022-08-19T01:21:31.837Z,18.40
2022-08-19T01:23:58.799Z,18.40
2022-08-19T01:26:31.189Z,18.40
2022-08-19T01:29:01.926Z,18.40
2022-08-19T01:31:33.505Z,18.30
2022-08-19T01:34:02.416Z,18.30
2022-08-19T01:36:29.354Z,18.30
2022-08-19T01:38:57.124Z,18.30
2022-08-19T01:41:24.427Z,18.30
2022-08-19T01:44:09.950Z,18.30
2022-08-19T01:46:41.212Z,18.30
2022-08-19T01:49:09.174Z,18.30
2022-08-19T01:51:39.802Z,18.20
2022-08-19T01:54:08.990Z,18.20
2022-08-19T01:56:36.725Z,18.20
2022-08-19T01:59:07.393Z,18.20
2022-08-19T02:01:34.946Z,18.20
2022-08-19T02:04:02.232Z,18.20
2022-08-19T02:06:29.767Z,18.20
2022-08-19T02:08:57.320Z,18.20
2022-08-19T02:11:34.420Z,18.20
2022-08-19T02:14:08.088Z,18.20
2022-08-19T02:16:37.162Z,18.10
2022-08-19T02:19:04.969Z,18.20
2022-08-19T02:21:32.250Z,18.10
2022-08-19T02:23:59.641Z,18.10
2022-08-19T02:26:27.662Z,18.10
2022-08-19T02:28:55.626Z,18.10
2022-08-19T02:31:25.674Z,18.10
2022-08-19T02:33:56.650Z,18.00
2022-08-19T02:36:25.569Z,18.10
2022-08-19T02:38:54.777Z,18.00
2022-08-19T02:41:34.042Z,18.00
2022-08-19T02:44:29.968Z,18.00
2022-08-19T02:46:51.761Z,18.00
2022-08-19T02:49:20.766Z,18.00
2022-08-19T02:51:48.306Z,18.00
2022-08-19T02:54:15.590Z,17.90
2022-08-19T02:56:44.479Z,18.00
2022-08-19T02:59:12.752Z,18.00
2022-08-19T03:01:41.966Z,17.90
2022-08-19T03:04:16.516Z,17.90
2022-08-19T03:06:45.483Z,17.90
2022-08-19T03:09:13.625Z,17.90
2022-08-19T03:11:40.573Z,17.90
2022-08-19T03:14:09.373Z,17.90
2022-08-19T03:16:45.603Z,17.90
2022-08-19T03:19:13.536Z,17.90
2022-08-19T03:21:40.821Z,17.90
2022-08-19T03:24:09.503Z,17.90
2022-08-19T03:26:40.819Z,17.80
2022-08-19T03:29:11.349Z,17.90
2022-08-19T03:31:50.927Z,17.90
2022-08-19T03:34:28.307Z,17.80
2022-08-19T03:36:57.139Z,17.80
2022-08-19T03:39:25.719Z,17.80
2022-08-19T03:42:29.267Z,17.80
2022-08-19T03:44:42.082Z,17.70
2022-08-19T03:47:09.002Z,17.80
2022-08-19T03:49:36.770Z,17.70
2022-08-19T03:52:08.132Z,17.70
2022-08-19T03:54:35.838Z,17.70
2022-08-19T03:57:03.933Z,17.70
2022-08-19T03:59:34.604Z,17.70
2022-08-19T04:02:04.285Z,17.70
2022-08-19T04:04:31.171Z,17.60
2022-08-19T04:06:59.369Z,17.70
2022-08-19T04:09:26.929Z,17.60
2022-08-19T04:11:56.063Z,17.60
2022-08-19T04:14:29.428Z,17.60
2022-08-19T04:16:56.620Z,17.60
2022-08-19T04:19:24.261Z,17.60
2022-08-19T04:21:53.765Z,17.60
2022-08-19T04:24:21.534Z,17.60
2022-08-19T04:26:49.755Z,17.60
2022-08-19T04:29:22.654Z,17.60
2022-08-19T04:31:50.405Z,17.60
2022-08-19T04:34:23.485Z,17.60
2022-08-19T04:36:52.201Z,17.60
2022-08-19T04:39:22.657Z,17.60
2022-08-19T04:42:22.581Z,17.60
2022-08-19T04:44:59.550Z,17.50
2022-08-19T04:47:47.443Z,17.50
2022-08-19T04:50:14.115Z,17.50
2022-08-19T04:52:43.762Z,17.50
2022-08-19T04:55:13.580Z,17.50
2022-08-19T04:57:41.280Z,17.50
2022-08-19T05:00:09.938Z,17.50
2022-08-19T05:02:37.247Z,17.60
2022-08-19T05:05:04.517Z,17.60
2022-08-19T05:07:31.987Z,17.60
2022-08-19T05:09:59.331Z,17.60
2022-08-19T05:12:30.576Z,17.60
2022-08-19T05:14:59.022Z,17.60
2022-08-19T05:17:29.579Z,17.70
2022-08-19T05:20:17.130Z,17.70
2022-08-19T05:22:46.108Z,17.70
2022-08-19T05:25:16.203Z,17.80
2022-08-19T05:27:43.411Z,17.80
2022-08-19T05:30:11.848Z,17.90
2022-08-19T05:32:40.142Z,17.90
2022-08-19T05:35:07.852Z,17.90
2022-08-19T05:37:34.985Z,17.90
2022-08-19T05:40:02.406Z,17.90
2022-08-19T05:42:29.554Z,18.00
2022-08-19T05:44:57.736Z,17.90
2022-08-19T05:47:24.881Z,18.00
2022-08-19T05:49:52.215Z,18.10
2022-08-19T05:52:25.902Z,18.00
2022-08-19T05:54:56.601Z,18.10
2022-08-19T05:57:25.383Z,18.20
2022-08-19T05:59:58.026Z,18.20
2022-08-19T06:02:29.547Z,18.20
2022-08-19T06:04:56.504Z,18.30
2022-08-19T06:07:23.670Z,18.30
2022-08-19T06:10:00.075Z,18.40
2022-08-19T06:12:35.862Z,18.50
2022-08-19T06:15:07.871Z,18.50
2022-08-19T06:17:36.126Z,18.60
2022-08-19T06:20:08.414Z,18.60
2022-08-19T06:22:43.018Z,18.70
2022-08-19T06:25:10.614Z,18.80
2022-08-19T06:27:42.006Z,18.80
2022-08-19T06:30:15.911Z,18.90
2022-08-19T06:32:43.085Z,18.90
2022-08-19T06:35:10.026Z,19.00
2022-08-19T06:37:40.827Z,19.10
2022-08-19T06:40:12.030Z,19.10
2022-08-19T06:42:39.388Z,19.20
2022-08-19T06:45:11.832Z,19.20
2022-08-19T06:47:38.685Z,19.20
2022-08-19T06:50:06.130Z,19.40
2022-08-19T06:52:36.654Z,19.50
2022-08-19T06:57:34.459Z,19.60
2022-08-19T07:00:01.983Z,19.70
2022-08-19T07:02:29.194Z,19.70
2022-08-19T07:04:58.861Z,19.80
2022-08-19T07:07:26.301Z,19.90
2022-08-19T07:09:58.438Z,20.00
2022-08-19T07:12:33.854Z,20.20
2022-08-19T07:15:04.285Z,20.20
2022-08-19T07:17:34.406Z,20.40
2022-08-19T07:20:05.505Z,20.40
2022-08-19T07:22:37.398Z,20.50
2022-08-19T07:25:06.466Z,20.60
2022-08-19T07:27:33.898Z,20.80
2022-08-19T07:30:01.657Z,20.80
2022-08-19T07:32:28.731Z,20.90
2022-08-19T07:34:57.194Z,21.10
2022-08-19T07:37:32.441Z,21.10
2022-08-19T07:40:00.481Z,21.30
2022-08-19T07:42:29.076Z,21.30
2022-08-19T07:44:55.895Z,21.30
2022-08-19T07:47:50.424Z,21.40
2022-08-19T07:50:12.471Z,21.50
2022-08-19T07:52:40.589Z,21.70
2022-08-19T07:55:13.635Z,21.90
2022-08-19T07:57:58.631Z,22.00
2022-08-19T08:00:25.776Z,21.90
2022-08-19T08:02:55.488Z,21.90
2022-08-19T08:05:45.017Z,21.80
2022-08-19T08:08:32.035Z,21.80
2022-08-19T08:11:00.189Z,21.90
2022-08-19T08:13:29.274Z,21.80
2022-08-19T08:15:57.330Z,22.00
2022-08-19T08:18:30.469Z,22.40
2022-08-19T08:20:58.152Z,22.50
2022-08-19T08:23:29.676Z,22.70
2022-08-19T08:25:58.944Z,22.60
2022-08-19T08:28:29.788Z,23.20
2022-08-19T08:30:58.076Z,23.50
2022-08-19T08:33:33.769Z,23.60
2022-08-19T08:36:08.453Z,23.50
2022-08-19T08:38:39.674Z,23.40
2022-08-19T08:41:35.551Z,23.40
2022-08-19T08:44:05.706Z,23.30
2022-08-19T08:46:50.477Z,23.20
2022-08-19T08:49:41.785Z,23.30
2022-08-19T08:52:31.941Z,23.70
2022-08-19T08:55:10.263Z,23.60
2022-08-19T08:57:55.621Z,23.70
2022-08-19T09:00:39.140Z,23.60
2022-08-19T09:03:33.165Z,23.80
2022-08-19T09:06:14.681Z,24.10
2022-08-19T09:08:44.298Z,24.20
2022-08-19T09:11:42.625Z,24.00
2022-08-19T09:14:51.139Z,23.90
2022-08-19T09:17:29.123Z,24.10
2022-08-19T09:20:20.045Z,24.20
2022-08-19T09:22:47.591Z,24.20
2022-08-19T09:25:24.724Z,24.00
2022-08-19T09:28:02.428Z,24.00
2022-08-19T09:30:33.634Z,24.40
2022-08-19T09:33:01.844Z,24.30
2022-08-19T09:35:31.230Z,24.20
2022-08-19T09:38:00.447Z,24.50
2022-08-19T09:40:35.436Z,24.70
2022-08-19T09:43:09.920Z,24.80
2022-08-19T09:45:37.145Z,24.90
2022-08-19T09:48:04.522Z,25.30
2022-08-19T09:50:36.701Z,25.60
2022-08-19T09:55:33.800Z,26.10
2022-08-19T09:58:02.273Z,26.20
2022-08-19T10:00:29.492Z,26.00
2022-08-19T10:02:56.473Z,25.90
2022-08-19T10:05:42.702Z,25.70
2022-08-19T10:08:13.057Z,25.50
2022-08-19T10:10:44.163Z,25.30
2022-08-19T10:13:16.891Z,25.00
2022-08-19T10:15:47.766Z,24.90
2022-08-19T10:18:19.291Z,24.80
2022-08-19T10:20:51.339Z,24.80
2022-08-19T10:23:20.863Z,24.80
2022-08-19T10:25:48.904Z,24.70
2022-08-19T10:28:16.055Z,24.70
2022-08-19T10:30:45.869Z,24.60
2022-08-19T10:33:12.917Z,24.50
2022-08-19T10:35:56.488Z,24.40
2022-08-19T10:38:31.415Z,24.30
2022-08-19T10:41:07.687Z,24.10
2022-08-19T10:43:37.863Z,24.20
2022-08-19T10:46:13.935Z,24.10
2022-08-19T10:48:44.268Z,24.10
2022-08-19T10:51:30.635Z,24.20
2022-08-19T10:53:58.126Z,24.30
2022-08-19T10:56:47.368Z,24.50
2022-08-19T10:59:15.400Z,25.10
2022-08-19T11:01:44.533Z,24.90
2022-08-19T11:04:12.131Z,24.80
2022-08-19T11:06:39.439Z,24.70
2022-08-19T11:09:07.101Z,24.60
2022-08-19T11:11:41.575Z,24.40
2022-08-19T11:14:10.615Z,24.30
2022-08-19T11:16:39.325Z,24.10
2022-08-19T11:19:09.122Z,24.00
2022-08-19T11:21:41.920Z,23.90
2022-08-19T11:24:12.251Z,23.90
2022-08-19T11:26:40.509Z,23.80
2022-08-19T11:29:12.455Z,23.80
2022-08-19T11:31:41.906Z,23.80
2022-08-19T11:34:11.047Z,23.90
2022-08-19T11:36:39.550Z,24.00
2022-08-19T11:39:09.576Z,24.30
2022-08-19T11:41:36.745Z,23.90
2022-08-19T11:44:05.478Z,23.80
2022-08-19T11:46:32.664Z,23.60
2022-08-19T11:49:01.544Z,23.40
2022-08-19T11:56:26.186Z,23.50
2022-08-19T11:58:54.332Z,23.50
2022-08-19T12:01:23.132Z,23.50
2022-08-19T12:03:52.764Z,23.60
2022-08-19T12:06:29.696Z,23.70
2022-08-19T12:08:58.669Z,23.70
2022-08-19T12:11:26.730Z,23.70
2022-08-19T12:13:54.634Z,23.70
2022-08-19T12:16:24.824Z,23.70
2022-08-19T12:18:52.296Z,23.80
2022-08-19T12:21:22.601Z,23.90
2022-08-19T12:23:55.704Z,23.90
2022-08-19T12:26:23.463Z,24.10
2022-08-19T12:28:50.699Z,24.20
2022-08-19T12:31:18.309Z,24.20
2022-08-19T12:33:45.159Z,24.30
2022-08-19T12:36:15.335Z,24.40
2022-08-19T12:38:43.898Z,24.30
2022-08-19T12:41:14.190Z,24.50
2022-08-19T12:43:45.601Z,24.50
2022-08-19T12:46:12.927Z,24.50
2022-08-19T12:48:43.633Z,24.50
2022-08-19T12:51:17.523Z,24.70
2022-08-19T12:53:44.950Z,24.90
2022-08-19T12:56:13.781Z,24.80
2022-08-19T12:58:42.671Z,24.70
2022-08-19T13:01:18.254Z,24.50
2022-08-19T13:03:51.023Z,24.50
2022-08-19T13:06:19.561Z,24.40
2022-08-19T13:08:47.495Z,24.40
2022-08-19T13:11:20.416Z,24.40
2022-08-19T13:13:49.566Z,24.50
2022-08-19T13:16:16.735Z,24.60
2022-08-19T13:18:48.398Z,24.50
2022-08-19T13:21:15.646Z,24.60
2022-08-19T13:23:43.174Z,24.70
2022-08-19T13:26:12.765Z,24.70
2022-08-19T13:28:59.437Z,24.80
2022-08-19T13:31:51.617Z,24.70
2022-08-19T13:34:22.009Z,24.80
2022-08-19T13:36:48.979Z,24.90
2022-08-19T13:39:16.012Z,25.10
2022-08-19T13:41:49.026Z,25.10
2022-08-19T13:44:19.311Z,25.30
2022-08-19T13:46:48.117Z,25.20
2022-08-19T13:49:15.868Z,25.10
2022-08-19T13:51:44.549Z,25.10
2022-08-19T13:54:14.451Z,25.10
2022-08-19T13:56:46.245Z,25.10
2022-08-19T13:59:13.279Z,25.20
2022-08-19T14:01:40.760Z,25.10
2022-08-19T14:04:10.290Z,25.10
2022-08-19T14:06:37.283Z,25.20
2022-08-19T14:09:06.147Z,25.20
2022-08-19T14:11:33.013Z,25.30
2022-08-19T14:14:02.744Z,25.30
2022-08-19T14:16:31.353Z,25.30
2022-08-19T14:18:58.376Z,25.30
2022-08-19T14:21:26.675Z,25.30
2022-08-19T14:23:54.428Z,25.30
2022-08-19T14:26:23.096Z,25.30
2022-08-19T14:28:51.317Z,25.40
2022-08-19T14:31:20.032Z,25.50
2022-08-19T14:33:51.323Z,25.50
2022-08-19T14:36:19.481Z,25.40
2022-08-19T14:38:46.649Z,25.30
2022-08-19T14:41:22.826Z,25.30
2022-08-19T14:43:53.109Z,25.20
2022-08-19T14:46:23.745Z,25.20
2022-08-19T14:48:55.233Z,25.30
2022-08-19T14:51:27.674Z,25.30
2022-08-19T14:53:55.223Z,25.30
2022-08-19T14:56:28.415Z,25.20
2022-08-19T14:58:55.710Z,25.10
2022-08-19T15:01:24.156Z,25.00
2022-08-19T15:03:55.797Z,24.90
2022-08-19T15:06:24.724Z,24.90
2022-08-19T15:08:52.770Z,25.00
2022-08-19T15:11:22.272Z,25.10
2022-08-19T15:13:49.339Z,25.20
2022-08-19T15:16:17.800Z,25.20
2022-08-19T15:18:46.408Z,25.20
2022-08-19T15:21:15.284Z,25.20
2022-08-19T15:23:42.205Z,25.20
2022-08-19T15:26:16.050Z,25.20
2022-08-19T15:28:43.860Z,25.10
2022-08-19T15:31:23.262Z,25.10
2022-08-19T15:33:58.275Z,25.00
2022-08-19T15:36:26.328Z,25.10
2022-08-19T15:38:53.470Z,25.20
2022-08-19T15:41:30.474Z,25.20
2022-08-19T15:44:10.268Z,25.20
2022-08-19T15:46:39.591Z,25.10
2022-08-19T15:49:07.992Z,25.00
2022-08-19T15:51:36.887Z,24.90
2022-08-19T15:54:06.632Z,24.90
2022-08-19T15:56:58.015Z,24.80
2022-08-19T15:59:47.081Z,24.70
2022-08-19T16:02:33.877Z,24.60
2022-08-19T16:05:19.559Z,24.50
2022-08-19T16:07:47.957Z,24.40
2022-08-19T16:10:27.199Z,24.40
2022-08-19T16:12:57.390Z,24.30
2022-08-19T16:15:27.786Z,24.20
2022-08-19T16:17:57.426Z,24.10
2022-08-19T16:20:27.431Z,24.10
2022-08-19T16:22:56.496Z,24.00
2022-08-19T16:25:27.551Z,23.90
2022-08-19T16:28:06.431Z,23.90
2022-08-19T16:30:39.770Z,23.90
2022-08-19T16:33:07.311Z,23.90
2022-08-19T16:35:34.320Z,23.80
2022-08-19T16:38:02.600Z,23.80
2022-08-19T16:40:29.771Z,23.70
2022-08-19T16:42:56.690Z,23.70
2022-08-19T16:45:23.928Z,23.70
2022-08-19T16:47:51.046Z,23.60
2022-08-19T16:50:25.359Z,23.60
2022-08-19T16:53:00.478Z,23.60
2022-08-19T16:55:28.381Z,23.60
2022-08-19T16:57:55.501Z,23.60
2022-08-19T17:00:22.655Z,23.60
2022-08-19T17:02:49.597Z,23.50
2022-08-19T17:05:16.961Z,23.50
2022-08-19T17:07:43.909Z,23.50
2022-08-19T17:10:10.905Z,23.60
2022-08-19T17:12:37.782Z,23.60
2022-08-19T17:15:07.091Z,23.70
2022-08-19T17:17:34.674Z,23.60
2022-08-19T17:20:02.772Z,23.60
2022-08-19T17:22:29.922Z,23.60
2022-08-19T17:24:58.255Z,23.50
2022-08-19T17:27:27.317Z,23.50
2022-08-19T17:29:59.880Z,23.50
2022-08-19T17:32:27.425Z,23.40
2022-08-19T17:34:54.549Z,23.40
2022-08-19T17:37:22.023Z,23.30
2022-08-19T17:39:51.841Z,23.30
2022-08-19T17:42:19.482Z,23.20
2022-08-19T17:44:50.680Z,23.20
2022-08-19T17:47:19.600Z,23.10
2022-08-19T17:49:46.848Z,23.00
2022-08-19T17:54:41.136Z,22.90
2022-08-19T17:57:09.673Z,23.00
2022-08-19T17:59:37.501Z,22.90
2022-08-19T18:02:06.844Z,22.90
2022-08-19T18:04:38.497Z,22.80
2022-08-19T18:07:06.277Z,22.80
2022-08-19T18:09:41.948Z,22.80
2022-08-19T18:12:12.275Z,22.70
2022-08-19T18:14:40.099Z,22.70
2022-08-19T18:17:13.209Z,22.70
2022-08-19T18:19:43.545Z,22.60
2022-08-19T18:22:22.507Z,22.60
2022-08-19T18:24:49.776Z,22.50
2022-08-19T18:27:16.911Z,22.50
2022-08-19T18:29:47.149Z,22.40
2022-08-19T18:32:18.155Z,22.40
2022-08-19T18:34:50.871Z,22.40
2022-08-19T18:37:17.748Z,22.30
2022-08-19T18:40:03.477Z,22.30
2022-08-19T18:43:05.872Z,22.20
2022-08-19T18:45:51.580Z,22.20
2022-08-19T18:48:36.972Z,22.10
2022-08-19T18:51:05.004Z,22.00
2022-08-19T18:53:34.905Z,21.90
2022-08-19T18:56:02.243Z,21.90
2022-08-19T18:58:34.954Z,21.90
2022-08-19T19:01:11.770Z,21.90
2022-08-19T19:03:45.778Z,21.90
2022-08-19T19:06:21.631Z,21.80
2022-08-19T19:08:50.389Z,21.80
2022-08-19T19:11:24.519Z,21.80
2022-08-19T19:13:51.822Z,21.80
2022-08-19T19:16:23.734Z,21.80
2022-08-19T19:18:52.752Z,21.70
2022-08-19T19:21:23.123Z,21.70
2022-08-19T19:23:51.337Z,21.70
2022-08-19T19:26:18.285Z,21.70
2022-08-19T19:28:46.641Z,21.70
2022-08-19T19:31:17.122Z,21.70
2022-08-19T19:33:44.981Z,21.70
2022-08-19T19:36:12.857Z,21.70
2022-08-19T19:38:47.715Z,21.70
2022-08-19T19:41:17.834Z,21.60
2022-08-19T19:43:44.699Z,21.60
2022-08-19T19:46:11.644Z,21.60
2022-08-19T19:48:41.531Z,21.60
2022-08-19T19:51:08.552Z,21.60
2022-08-19T19:53:37.059Z,21.60
2022-08-19T19:56:04.682Z,21.60
2022-08-19T19:58:33.688Z,21.60
2022-08-19T20:01:01.403Z,21.50
2022-08-19T20:03:34.910Z,21.50
2022-08-19T20:06:01.901Z,21.50
2022-08-19T20:08:47.986Z,21.50
2022-08-19T20:11:31.740Z,21.50
2022-08-19T20:14:01.478Z,21.50
2022-08-19T20:16:30.951Z,21.40
2022-08-19T20:19:00.476Z,21.40
2022-08-19T20:21:32.381Z,21.40
2022-08-19T20:24:09.127Z,21.40
2022-08-19T20:26:37.741Z,21.40
2022-08-19T20:29:13.408Z,21.40
2022-08-19T20:31:58.007Z,21.30
2022-08-19T20:34:27.434Z,21.30
2022-08-19T20:36:54.291Z,21.30
2022-08-19T20:39:21.129Z,21.30
2022-08-19T20:41:48.786Z,21.30
2022-08-19T20:44:16.058Z,21.30
2022-08-19T20:46:42.931Z,21.30
2022-08-19T20:49:26.831Z,21.30
2022-08-19T20:51:54.690Z,21.30
2022-08-19T20:54:21.632Z,21.30
2022-08-19T20:56:48.569Z,21.30
2022-08-19T20:59:15.746Z,21.30
2022-08-19T21:01:42.620Z,21.30
2022-08-19T21:04:09.535Z,21.20
2022-08-19T21:06:38.800Z,21.20
2022-08-19T21:09:09.286Z,21.20
2022-08-19T21:11:36.743Z,21.20
2022-08-19T21:14:03.760Z,21.10
2022-08-19T21:16:32.703Z,21.10
2022-08-19T21:19:00.259Z,21.10
2022-08-19T21:21:27.211Z,21.10
2022-08-19T21:23:54.058Z,21.10
2022-08-19T21:26:21.118Z,21.00
2022-08-19T21:28:48.024Z,21.00
2022-08-19T21:31:15.849Z,21.00
2022-08-19T21:33:42.935Z,20.90
2022-08-19T21:36:10.168Z,20.90
2022-08-19T21:38:38.012Z,20.90
2022-08-19T21:41:06.792Z,20.90
2022-08-19T21:43:35.435Z,20.90
2022-08-19T21:46:05.432Z,20.90
2022-08-19T21:48:32.850Z,20.90
2022-08-19T21:50:59.803Z,20.90
2022-08-19T21:53:31.515Z,20.90
2022-08-19T21:56:02.042Z,20.90
2022-08-19T21:58:30.704Z,20.90
2022-08-19T22:01:05.621Z,20.90
2022-08-19T22:03:36.836Z,20.90
2022-08-19T22:06:04.409Z,20.80
2022-08-19T22:08:31.546Z,20.80
2022-08-19T22:11:01.246Z,20.80
2022-08-19T22:13:28.288Z,20.80
2022-08-19T22:15:55.316Z,20.80
2022-08-19T22:18:22.309Z,20.80
2022-08-19T22:20:50.166Z,20.80
2022-08-19T22:23:17.110Z,20.70
2022-08-19T22:25:46.927Z,20.70
2022-08-19T22:28:19.070Z,20.70
2022-08-19T22:30:57.108Z,20.70
2022-08-19T22:33:25.853Z,20.80
2022-08-19T22:35:53.668Z,20.70
2022-08-19T22:38:20.489Z,20.70
2022-08-19T22:40:49.235Z,20.70
2022-08-19T22:43:18.222Z,20.70
2022-08-19T22:45:46.608Z,20.70
2022-08-19T22:48:15.656Z,20.70
2022-08-19T22:50:44.364Z,20.60
2022-08-19T22:53:12.361Z,20.60
2022-08-19T22:55:39.931Z,20.60
2022-08-19T22:58:06.775Z,20.60
2022-08-19T23:00:34.423Z,20.70
2022-08-19T23:03:02.231Z,20.70
2022-08-19T23:05:31.824Z,20.70
2022-08-19T23:07:58.976Z,20.70
2022-08-19T23:10:28.877Z,20.70
2022-08-19T23:12:59.065Z,20.60
2022-08-19T23:15:30.237Z,20.60
2022-08-19T23:17:59.796Z,20.60
2022-08-19T23:20:30.001Z,20.60
2022-08-19T23:22:57.698Z,20.50
2022-08-19T23:25:27.584Z,20.60
2022-08-19T23:28:13.771Z,20.50
2022-08-19T23:30:44.797Z,20.50
2022-08-19T23:33:24.818Z,20.50
2022-08-19T23:35:55.054Z,20.50
2022-08-19T23:38:23.273Z,20.50
2022-08-19T23:40:56.978Z,20.50
2022-08-19T23:43:25.089Z,20.50
2022-08-19T23:45:53.707Z,20.50
2022-08-19T23:48:26.026Z,20.50
2022-08-19T23:50:57.033Z,20.40
2022-08-19T23:53:24.719Z,20.40
2022-08-19T23:55:51.988Z,20.40
2022-08-19T23:58:19.948Z,20.40
